Hauptseite
METAR-TAF:

METAR-TAF

Flughäfen :

Flughafen London Heathrow

London-Heathrow, England

Breite: 51-29N, Länge: 000-27W, Höhe: 24 m

Beobachtung

Neuester Wetterbericht von vor 23 Minuten, um 19:50 UTC
Wind 6 kt aus Nordwest, variierte zwischen West und Nord/Nordwest
Temperatur 19°C
Luftfeuchtigkeit 60%
Luftdruck 1017 hPa
Sichtweite 10 km oder mehr

METAR: EGLL 241950Z AUTO 31006KT 270V330 9999 FEW039/// //////CB 19/11 Q1017

Zeit: 21:13 (20:13 UTC)

Prognose

Neuester Wetterbericht von vor 3 Stunden und 15 Minuten, um 16:58 UTC
Gültige Prognose vom 24 um 18 UTC bis 25 um 24 UTC
Wind 6 kt aus Nord/Nordwest
Sichtweite 10 km oder mehr
Leicht bewölkt in der Höhe von 4500 ft
Wahrscheinlichkeit 30% :
Zeitweise
vom 24 um 18 UTC bis 24 um 21 UTC
Sichtweite: 8000 m
Regenschauer

TAF: EGLL 241658Z 2418/2524 33006KT 9999 FEW045 PROB30 TEMPO 2418/2421 8000 SHRA

Wetterbeobachtungen und Prognosen von mehr als 4000 Flughäfen (METAR und TAF Bericht).

Die verfügbaren Stationen werden durch gelbe und rote Markierungen auf der Karte dargestellt.

Führen Sie die Maus auf sie, um den Namen der Station zu sehen.

Darauf klicken, um die Beobachtung von Wetterbeobachtungen und Prognosen zu sehen.

Um die Karte zu ändern : klicken Sie auf den grünen Tasten mit einem schwarzen Kreuz Zum Vergrößern, auf den grünen Button mit einem Gedankenstrich zu verkleinern, oder auf die grünen Pfeile für benachbarte Karten.


METAR-TAF: